createdAt,value
2019-05-25T00:01:42.824Z,17.40
2019-05-25T00:04:11.434Z,17.40
2019-05-25T00:06:40.125Z,17.40
2019-05-25T00:09:08.903Z,17.40
2019-05-25T00:11:37.570Z,17.30
2019-05-25T00:14:06.185Z,17.30
2019-05-25T00:16:35.008Z,17.20
2019-05-25T00:19:03.774Z,17.10
2019-05-25T00:21:32.490Z,17.00
2019-05-25T00:24:11.813Z,17.00
2019-05-25T00:26:31.498Z,17.00
2019-05-25T00:29:00.166Z,16.90
2019-05-25T00:31:28.799Z,17.00
2019-05-25T00:33:57.504Z,16.90
2019-05-25T00:36:26.121Z,16.80
2019-05-25T00:38:54.775Z,16.80
2019-05-25T00:41:23.390Z,16.70
2019-05-25T00:43:52.054Z,16.70
2019-05-25T00:46:20.735Z,16.60
2019-05-25T00:48:49.421Z,16.50
2019-05-25T00:51:18.032Z,16.60
2019-05-25T00:53:46.752Z,16.40
2019-05-25T00:56:15.413Z,16.30
2019-05-25T00:58:44.077Z,16.30
2019-05-25T01:01:12.750Z,16.20
2019-05-25T01:03:41.415Z,16.20
2019-05-25T01:06:10.023Z,16.20
2019-05-25T01:08:38.680Z,16.20
2019-05-25T01:11:07.387Z,16.20
2019-05-25T01:13:36.006Z,16.10
2019-05-25T01:16:04.978Z,16.20
2019-05-25T01:18:33.638Z,16.00
2019-05-25T01:21:02.339Z,16.00
2019-05-25T01:23:31.021Z,16.00
2019-05-25T01:25:59.680Z,15.90
2019-05-25T01:28:28.411Z,15.90
2019-05-25T01:30:57.028Z,15.80
2019-05-25T01:33:25.703Z,15.80
2019-05-25T01:35:54.376Z,15.70
2019-05-25T01:38:23.035Z,15.60
2019-05-25T01:40:51.663Z,15.60
2019-05-25T01:43:20.308Z,15.40
2019-05-25T01:45:48.921Z,15.40
2019-05-25T01:48:17.584Z,15.30
2019-05-25T01:50:46.197Z,15.30
2019-05-25T01:53:14.817Z,15.20
2019-05-25T01:55:43.472Z,15.10
2019-05-25T01:58:12.087Z,15.20
2019-05-25T02:00:40.817Z,15.10
2019-05-25T02:03:09.430Z,15.20
2019-05-25T02:05:38.088Z,15.10
2019-05-25T02:08:06.704Z,15.10
2019-05-25T02:10:35.372Z,15.10
2019-05-25T02:13:03.982Z,15.00
2019-05-25T02:15:32.641Z,14.90
2019-05-25T02:18:01.403Z,14.80
2019-05-25T02:20:30.064Z,14.60
2019-05-25T02:22:58.725Z,14.60
2019-05-25T02:25:27.459Z,14.50
2019-05-25T02:27:56.067Z,14.50
2019-05-25T02:30:26.539Z,14.60
2019-05-25T02:32:55.395Z,14.60
2019-05-25T02:35:27.060Z,14.60
2019-05-25T02:37:56.977Z,14.60
2019-05-25T02:40:26.141Z,14.50
2019-05-25T02:42:54.837Z,14.50
2019-05-25T02:45:23.610Z,14.50
2019-05-25T02:47:52.227Z,14.50
2019-05-25T02:50:21.400Z,14.50
2019-05-25T02:52:50.015Z,14.50
2019-05-25T02:55:32.946Z,14.40
2019-05-25T02:57:49.299Z,14.40
2019-05-25T03:00:21.460Z,14.40
2019-05-25T03:02:50.654Z,14.30
2019-05-25T03:05:20.207Z,14.30
2019-05-25T03:07:49.043Z,14.20
2019-05-25T03:10:18.040Z,14.00
2019-05-25T03:12:46.935Z,13.90
2019-05-25T03:15:16.135Z,14.00
2019-05-25T03:17:44.798Z,14.00
2019-05-25T03:20:14.221Z,13.90
2019-05-25T03:22:42.879Z,13.90
2019-05-25T03:25:12.035Z,13.90
2019-05-25T03:27:40.700Z,13.80
2019-05-25T03:30:10.387Z,13.70
2019-05-25T03:32:39.069Z,13.60
2019-05-25T03:35:08.285Z,13.60
2019-05-25T03:37:36.979Z,13.70
2019-05-25T03:40:07.900Z,13.70
2019-05-25T03:42:36.528Z,13.60
2019-05-25T03:45:06.761Z,13.60
2019-05-25T03:47:35.369Z,13.60
2019-05-25T03:50:04.847Z,13.50
2019-05-25T03:52:33.450Z,13.50
2019-05-25T03:55:02.118Z,13.50
2019-05-25T03:57:30.727Z,13.40
2019-05-25T03:59:59.385Z,13.50
2019-05-25T04:02:28.034Z,13.50
2019-05-25T04:04:56.741Z,13.60
2019-05-25T04:07:25.410Z,13.60
2019-05-25T04:09:54.073Z,13.70
2019-05-25T04:12:22.740Z,13.80
2019-05-25T04:14:51.403Z,13.80
2019-05-25T04:17:20.063Z,13.70
2019-05-25T04:19:48.745Z,13.70
2019-05-25T04:22:17.410Z,13.70
2019-05-25T04:24:46.020Z,13.70
2019-05-25T04:27:14.682Z,13.50
2019-05-25T04:29:43.344Z,13.40
2019-05-25T04:32:11.955Z,13.50
2019-05-25T04:34:40.651Z,13.40
2019-05-25T04:37:09.314Z,13.60
2019-05-25T04:39:37.924Z,13.70
2019-05-25T04:42:06.584Z,13.70
2019-05-25T04:44:35.201Z,13.80
2019-05-25T04:47:03.865Z,13.70
2019-05-25T04:49:32.522Z,13.80
2019-05-25T04:52:01.207Z,13.90
2019-05-25T04:54:29.933Z,13.90
2019-05-25T04:56:58.599Z,14.10
2019-05-25T04:59:27.304Z,14.00
2019-05-25T05:01:55.976Z,13.80
2019-05-25T05:04:24.677Z,13.80
2019-05-25T05:06:53.375Z,13.70
2019-05-25T05:09:22.051Z,13.70
2019-05-25T05:11:50.718Z,13.60
2019-05-25T05:14:19.332Z,13.60
2019-05-25T05:16:48.009Z,13.60
2019-05-25T05:19:16.796Z,13.70
2019-05-25T05:21:45.473Z,13.70
2019-05-25T05:24:14.081Z,13.70
2019-05-25T05:26:55.253Z,13.70
2019-05-25T05:29:13.078Z,13.70
2019-05-25T05:31:41.689Z,13.60
2019-05-25T05:34:10.364Z,13.60
2019-05-25T05:36:39.039Z,13.60
2019-05-25T05:39:08.671Z,13.70
2019-05-25T05:41:40.313Z,13.60
2019-05-25T05:44:08.974Z,13.60
2019-05-25T05:46:37.724Z,13.70
2019-05-25T05:49:08.999Z,13.80
2019-05-25T05:51:38.550Z,13.90
2019-05-25T05:54:07.313Z,13.80
2019-05-25T05:56:35.930Z,13.90
2019-05-25T05:59:04.595Z,14.00
2019-05-25T06:01:33.252Z,14.10
2019-05-25T06:04:02.176Z,14.20
2019-05-25T06:06:31.012Z,14.30
2019-05-25T06:08:59.627Z,14.30
2019-05-25T06:11:28.286Z,14.30
2019-05-25T06:13:56.089Z,14.50
2019-05-25T06:16:24.742Z,14.60
2019-05-25T06:18:53.349Z,14.60
2019-05-25T06:21:22.011Z,14.70
2019-05-25T06:23:50.626Z,14.80
2019-05-25T06:26:19.296Z,14.90
2019-05-25T06:28:48.100Z,15.00
2019-05-25T06:31:16.763Z,15.00
2019-05-25T06:33:45.378Z,15.00
2019-05-25T06:36:14.158Z,15.00
2019-05-25T06:38:42.772Z,15.20
2019-05-25T06:41:11.433Z,15.30
2019-05-25T06:43:40.085Z,15.30
2019-05-25T06:46:08.744Z,15.40
2019-05-25T06:48:37.357Z,15.40
2019-05-25T06:51:06.086Z,15.40
2019-05-25T06:53:34.770Z,15.50
2019-05-25T06:56:03.600Z,15.60
2019-05-25T06:58:32.212Z,15.60
2019-05-25T07:01:00.877Z,15.60
2019-05-25T07:03:29.494Z,15.70
2019-05-25T07:05:58.187Z,15.60
2019-05-25T07:08:26.872Z,15.70
2019-05-25T07:10:55.533Z,15.70
2019-05-25T07:13:24.213Z,15.80
2019-05-25T07:15:52.935Z,15.70
2019-05-25T07:18:21.559Z,15.80
2019-05-25T07:20:50.209Z,15.90
2019-05-25T07:23:18.825Z,16.00
2019-05-25T07:25:47.491Z,15.90
2019-05-25T07:28:16.106Z,15.90
2019-05-25T07:30:46.713Z,15.80
2019-05-25T07:33:15.102Z,15.90
2019-05-25T07:35:43.763Z,16.10
2019-05-25T07:38:12.650Z,16.40
2019-05-25T07:40:41.304Z,16.30
2019-05-25T07:43:09.960Z,16.20
2019-05-25T07:45:42.904Z,16.10
2019-05-25T07:48:11.693Z,16.20
2019-05-25T07:50:40.376Z,16.40
2019-05-25T07:53:09.034Z,16.30
2019-05-25T07:55:37.694Z,16.30
2019-05-25T07:58:16.445Z,16.60
2019-05-25T08:00:36.726Z,16.80
2019-05-25T08:05:57.759Z,16.60
2019-05-25T08:08:26.417Z,16.90
2019-05-25T08:10:55.054Z,17.00
2019-05-25T08:13:23.740Z,17.10
2019-05-25T08:15:52.400Z,17.10
2019-05-25T08:18:21.082Z,17.10
2019-05-25T08:20:49.800Z,17.10
2019-05-25T08:23:18.458Z,17.20
2019-05-25T08:25:47.242Z,17.10
2019-05-25T08:28:29.861Z,17.10
2019-05-25T08:30:46.423Z,17.20
2019-05-25T08:33:15.281Z,17.50
2019-05-25T08:35:46.454Z,17.50
2019-05-25T08:38:14.543Z,17.60
2019-05-25T08:40:43.475Z,17.50
2019-05-25T08:43:12.088Z,17.40
2019-05-25T08:45:40.916Z,17.30
2019-05-25T08:48:09.528Z,17.50
2019-05-25T08:50:38.931Z,17.40
2019-05-25T08:53:07.893Z,17.30
2019-05-25T08:55:37.291Z,17.40
2019-05-25T08:58:05.900Z,17.40
2019-05-25T09:00:34.632Z,17.60
2019-05-25T09:03:03.312Z,17.90
2019-05-25T09:05:31.973Z,18.20
2019-05-25T09:08:00.632Z,18.20
2019-05-25T09:10:29.308Z,18.10
2019-05-25T09:12:57.919Z,17.90
2019-05-25T09:15:26.631Z,18.20
2019-05-25T09:17:55.568Z,18.40
2019-05-25T09:20:24.225Z,18.20
2019-05-25T09:22:52.890Z,18.30
2019-05-25T09:25:21.580Z,18.50
2019-05-25T09:27:50.242Z,18.40
2019-05-25T09:30:19.093Z,18.20
2019-05-25T09:32:47.844Z,18.10
2019-05-25T09:35:16.695Z,18.20
2019-05-25T09:37:45.538Z,18.00
2019-05-25T09:40:14.838Z,18.30
2019-05-25T09:42:43.696Z,18.40
2019-05-25T09:45:14.363Z,18.60
2019-05-25T09:47:43.162Z,18.60
2019-05-25T09:50:12.584Z,18.30
2019-05-25T09:52:41.240Z,18.20
2019-05-25T09:55:10.636Z,18.30
2019-05-25T09:57:41.730Z,18.40
2019-05-25T10:00:13.071Z,18.40
2019-05-25T10:02:42.586Z,18.70
2019-05-25T10:05:12.496Z,18.90
2019-05-25T10:07:41.110Z,19.00
2019-05-25T10:10:11.786Z,18.60
2019-05-25T10:12:40.398Z,18.80
2019-05-25T10:15:09.404Z,18.60
2019-05-25T10:17:38.187Z,18.80
2019-05-25T10:20:08.092Z,18.90
2019-05-25T10:22:36.707Z,18.80
2019-05-25T10:25:09.923Z,18.50
2019-05-25T10:27:38.537Z,18.30
2019-05-25T10:30:09.202Z,18.50
2019-05-25T10:32:37.813Z,18.40
2019-05-25T10:35:08.407Z,18.60
2019-05-25T10:37:37.166Z,18.40
2019-05-25T10:40:09.402Z,18.50
2019-05-25T10:42:38.225Z,18.50
2019-05-25T10:45:09.068Z,18.50
2019-05-25T10:47:37.968Z,18.40
2019-05-25T10:50:12.884Z,18.80
2019-05-25T10:52:41.645Z,19.00
2019-05-25T10:55:12.307Z,19.00
2019-05-25T10:57:40.971Z,18.90
2019-05-25T11:00:11.692Z,18.70
2019-05-25T11:02:40.360Z,18.70
2019-05-25T11:05:10.010Z,18.80
2019-05-25T11:07:38.782Z,18.70
2019-05-25T11:10:09.008Z,18.80
2019-05-25T11:12:38.346Z,18.50
2019-05-25T11:15:09.560Z,18.50
2019-05-25T11:17:38.387Z,18.70
2019-05-25T11:20:09.262Z,19.00
2019-05-25T11:22:38.058Z,19.30
2019-05-25T11:25:08.252Z,19.20
2019-05-25T11:27:36.971Z,19.30
2019-05-25T11:30:10.305Z,19.20
2019-05-25T11:32:39.311Z,19.20
2019-05-25T11:35:08.702Z,19.20
2019-05-25T11:37:37.450Z,19.10
2019-05-25T11:40:08.524Z,19.00
2019-05-25T11:42:37.200Z,18.80
2019-05-25T11:45:06.923Z,19.00
2019-05-25T11:47:35.577Z,19.10
2019-05-25T11:50:07.536Z,19.30
2019-05-25T11:52:36.268Z,19.40
2019-05-25T11:55:10.370Z,19.60
2019-05-25T11:57:39.047Z,20.00
2019-05-25T12:00:23.597Z,19.90
2019-05-25T12:02:41.676Z,20.00
2019-05-25T12:05:12.152Z,19.70
2019-05-25T12:07:44.440Z,19.90
2019-05-25T12:10:12.067Z,20.00
2019-05-25T12:12:40.661Z,20.00
2019-05-25T12:15:10.133Z,20.00
2019-05-25T12:17:38.817Z,20.10
2019-05-25T12:20:08.686Z,20.40
2019-05-25T12:22:37.325Z,20.30
2019-05-25T12:25:07.913Z,20.50
2019-05-25T12:27:36.529Z,20.40
2019-05-25T12:30:07.469Z,20.90
2019-05-25T12:32:36.651Z,20.90
2019-05-25T12:35:08.884Z,20.60
2019-05-25T12:37:37.516Z,20.30
2019-05-25T12:40:06.862Z,19.90
2019-05-25T12:42:35.477Z,19.90
2019-05-25T12:45:06.348Z,20.00
2019-05-25T12:47:35.397Z,20.20
2019-05-25T12:50:06.216Z,20.10
2019-05-25T12:52:35.006Z,20.60
2019-05-25T12:55:04.929Z,20.60
2019-05-25T12:57:33.662Z,20.60
2019-05-25T13:00:14.833Z,20.70
2019-05-25T13:02:33.893Z,20.70
2019-05-25T13:05:02.634Z,21.00
2019-05-25T13:07:31.254Z,20.70
2019-05-25T13:09:59.917Z,20.30
2019-05-25T13:12:28.531Z,20.80
2019-05-25T13:14:57.276Z,21.20
2019-05-25T13:17:25.894Z,21.80
2019-05-25T13:19:54.559Z,25.00
2019-05-25T13:22:23.174Z,25.90
2019-05-25T13:24:51.952Z,24.70
2019-05-25T13:27:20.614Z,23.10
2019-05-25T13:29:49.279Z,24.00
2019-05-25T13:32:17.972Z,23.60
2019-05-25T13:34:46.715Z,23.10
2019-05-25T13:37:17.762Z,24.80
2019-05-25T13:39:45.779Z,23.90
2019-05-25T13:42:14.389Z,25.50
2019-05-25T13:44:43.050Z,26.10
2019-05-25T13:47:11.661Z,26.00
2019-05-25T13:49:40.420Z,26.80
2019-05-25T13:52:09.030Z,27.20
2019-05-25T13:54:37.701Z,27.70
2019-05-25T13:57:06.440Z,26.00
2019-05-25T13:59:35.166Z,25.00
2019-05-25T14:02:03.850Z,25.50
2019-05-25T14:04:32.510Z,24.80
2019-05-25T14:07:01.122Z,27.60
2019-05-25T14:09:29.796Z,29.30
2019-05-25T14:11:58.406Z,31.90
2019-05-25T14:14:27.016Z,32.50
2019-05-25T14:16:55.681Z,32.10
2019-05-25T14:19:24.294Z,31.70
2019-05-25T14:21:52.968Z,32.90
2019-05-25T14:24:21.718Z,33.60
2019-05-25T14:26:50.405Z,33.50
2019-05-25T14:29:19.039Z,34.60
2019-05-25T14:31:47.880Z,34.80
2019-05-25T14:34:16.491Z,34.10
2019-05-25T14:36:45.154Z,33.00
2019-05-25T14:39:13.772Z,31.60
2019-05-25T14:41:42.437Z,30.50
2019-05-25T14:44:11.051Z,29.40
2019-05-25T14:46:39.705Z,29.10
2019-05-25T14:49:08.321Z,29.60
2019-05-25T14:51:36.989Z,29.10
2019-05-25T14:54:05.755Z,28.40
2019-05-25T14:56:34.408Z,29.70
2019-05-25T14:59:03.026Z,28.40
2019-05-25T15:01:31.805Z,26.80
2019-05-25T15:04:00.422Z,25.40
2019-05-25T15:06:29.080Z,24.90
2019-05-25T15:08:57.794Z,24.10
2019-05-25T15:11:26.430Z,23.70
2019-05-25T15:13:55.089Z,23.70
2019-05-25T15:16:23.821Z,23.70
2019-05-25T15:18:52.518Z,23.50
2019-05-25T15:21:21.350Z,23.50
2019-05-25T15:23:50.141Z,23.10
2019-05-25T15:26:18.775Z,22.90
2019-05-25T15:28:47.435Z,22.50
2019-05-25T15:31:16.142Z,22.00
2019-05-25T15:33:44.804Z,22.40
2019-05-25T15:36:13.465Z,22.10
2019-05-25T15:38:42.202Z,21.70
2019-05-25T15:41:10.819Z,21.80
2019-05-25T15:43:39.572Z,21.40
2019-05-25T15:46:08.264Z,21.20
2019-05-25T15:48:36.949Z,21.20
2019-05-25T15:51:05.819Z,21.80
2019-05-25T15:53:34.435Z,21.80
2019-05-25T15:56:03.164Z,21.30
2019-05-25T15:58:31.784Z,20.80
2019-05-25T16:01:00.442Z,20.90
2019-05-25T16:03:29.221Z,20.40
2019-05-25T16:05:57.881Z,20.70
2019-05-25T16:08:26.501Z,21.30
2019-05-25T16:10:55.162Z,21.20
2019-05-25T16:13:23.781Z,21.30
2019-05-25T16:15:52.438Z,20.90
2019-05-25T16:18:21.049Z,21.00
2019-05-25T16:20:49.714Z,20.70
2019-05-25T16:23:18.335Z,20.50
2019-05-25T16:25:46.995Z,20.30
2019-05-25T16:28:15.721Z,21.00
2019-05-25T16:30:44.389Z,21.80
2019-05-25T16:35:43.397Z,21.30
2019-05-25T16:38:12.133Z,21.30
2019-05-25T16:40:07.806Z,21.80
2019-05-25T16:40:41.390Z,20.70
2019-05-25T16:43:10.174Z,20.10
2019-05-25T16:45:38.984Z,20.00
2019-05-25T16:48:07.597Z,19.70
2019-05-25T16:50:36.276Z,20.30
2019-05-25T16:53:05.099Z,20.10
2019-05-25T16:55:33.763Z,19.70
2019-05-25T16:58:02.374Z,19.50
2019-05-25T17:00:31.926Z,19.80
2019-05-25T17:03:00.603Z,19.70
2019-05-25T17:05:29.268Z,19.50
2019-05-25T17:07:58.157Z,19.50
2019-05-25T17:10:26.883Z,19.40
2019-05-25T17:12:55.493Z,19.50
2019-05-25T17:15:24.331Z,19.20
2019-05-25T17:17:53.022Z,19.10
2019-05-25T17:20:22.068Z,18.90
2019-05-25T17:22:50.825Z,19.00
2019-05-25T17:25:19.640Z,19.00
2019-05-25T17:27:48.339Z,18.80
2019-05-25T17:30:18.800Z,18.80
2019-05-25T17:32:47.467Z,18.70
2019-05-25T17:35:16.316Z,18.70
2019-05-25T17:37:44.982Z,18.30
2019-05-25T17:40:13.837Z,18.20
2019-05-25T17:42:42.560Z,18.10
2019-05-25T17:45:11.409Z,18.10
2019-05-25T17:47:40.128Z,17.80
2019-05-25T17:50:09.082Z,17.90
2019-05-25T17:52:37.747Z,18.00
2019-05-25T17:55:07.728Z,17.80
2019-05-25T17:57:36.391Z,17.90
2019-05-25T18:00:07.803Z,17.90
2019-05-25T18:02:36.502Z,17.60
2019-05-25T18:05:07.557Z,17.80
2019-05-25T18:07:36.243Z,17.80
2019-05-25T18:10:09.398Z,17.70
2019-05-25T18:12:38.107Z,17.40
2019-05-25T18:15:09.903Z,17.60
2019-05-25T18:17:38.614Z,17.80
2019-05-25T18:20:11.391Z,17.70
2019-05-25T18:22:40.005Z,17.60
2019-05-25T18:25:08.909Z,17.20
2019-05-25T18:27:37.565Z,17.30
2019-05-25T18:30:09.815Z,17.30
2019-05-25T18:32:38.604Z,17.20
2019-05-25T18:35:07.799Z,17.20
2019-05-25T18:37:36.415Z,17.30
2019-05-25T18:40:07.155Z,17.40
2019-05-25T18:42:35.945Z,17.50
2019-05-25T18:45:07.609Z,17.40
2019-05-25T18:47:36.297Z,17.30
2019-05-25T18:50:08.322Z,17.20
2019-05-25T18:52:36.934Z,17.10
2019-05-25T18:55:08.389Z,16.80
2019-05-25T18:57:37.290Z,16.90
2019-05-25T19:00:07.571Z,16.80
2019-05-25T19:02:36.250Z,16.70
2019-05-25T19:05:07.118Z,16.60
2019-05-25T19:07:35.736Z,16.50
2019-05-25T19:10:07.986Z,16.30
2019-05-25T19:12:36.631Z,16.40
2019-05-25T19:15:09.729Z,16.20
2019-05-25T19:17:38.423Z,16.20
2019-05-25T19:20:08.182Z,16.30
2019-05-25T19:22:37.362Z,16.30
2019-05-25T19:25:10.285Z,16.30
2019-05-25T19:27:38.964Z,16.30
2019-05-25T19:30:09.294Z,16.30
2019-05-25T19:32:37.909Z,16.20
2019-05-25T19:35:08.032Z,16.10
2019-05-25T19:37:37.540Z,16.10
2019-05-25T19:40:09.897Z,16.10
2019-05-25T19:42:38.506Z,16.10
2019-05-25T19:45:08.615Z,16.10
2019-05-25T19:47:37.278Z,16.20
2019-05-25T19:50:07.205Z,16.20
2019-05-25T19:52:36.815Z,16.10
2019-05-25T19:55:06.719Z,16.00
2019-05-25T19:57:35.507Z,16.00
2019-05-25T20:00:09.146Z,15.90
2019-05-25T20:02:37.895Z,15.80
2019-05-25T20:05:16.313Z,15.70
2019-05-25T20:07:38.783Z,15.60
2019-05-25T20:10:09.692Z,15.50
2019-05-25T20:12:38.370Z,15.40
2019-05-25T20:15:11.582Z,15.30
2019-05-25T20:17:40.192Z,15.20
2019-05-25T20:20:09.963Z,15.20
2019-05-25T20:22:38.622Z,15.10
2019-05-25T20:25:07.726Z,15.00
2019-05-25T20:27:36.340Z,14.90
2019-05-25T20:30:08.828Z,14.80
2019-05-25T20:32:37.441Z,14.80
2019-05-25T20:35:07.807Z,14.70
2019-05-25T20:37:36.418Z,14.70
2019-05-25T20:40:08.460Z,14.60
2019-05-25T20:42:37.153Z,14.50
2019-05-25T20:45:07.999Z,14.40
2019-05-25T20:47:36.616Z,14.40
2019-05-25T20:50:07.694Z,14.40
2019-05-25T20:52:36.383Z,14.30
2019-05-25T20:55:08.675Z,14.20
2019-05-25T20:57:37.332Z,14.20
2019-05-25T21:00:07.462Z,14.20
2019-05-25T21:02:36.266Z,14.10
2019-05-25T21:05:07.063Z,14.10
2019-05-25T21:07:35.795Z,14.00
2019-05-25T21:10:08.335Z,13.90
2019-05-25T21:12:37.874Z,13.90
2019-05-25T21:15:08.106Z,13.70
2019-05-25T21:17:36.766Z,13.80
2019-05-25T21:20:06.691Z,13.70
2019-05-25T21:22:35.429Z,13.60
2019-05-25T21:25:07.358Z,13.60
2019-05-25T21:27:36.359Z,13.60
2019-05-25T21:30:07.076Z,13.60
2019-05-25T21:32:35.742Z,13.50
2019-05-25T21:35:06.263Z,13.50
2019-05-25T21:37:34.927Z,13.50
2019-05-25T21:40:06.544Z,13.50
2019-05-25T21:42:35.267Z,13.40
2019-05-25T21:45:05.339Z,13.40
2019-05-25T21:47:33.997Z,13.30
2019-05-25T21:50:02.613Z,13.30
2019-05-25T21:52:31.398Z,13.30
2019-05-25T21:55:00.009Z,13.30
2019-05-25T21:57:28.740Z,13.30
2019-05-25T21:59:57.349Z,13.20
2019-05-25T22:02:26.084Z,13.30
2019-05-25T22:04:54.761Z,13.20
2019-05-25T22:07:23.495Z,13.20
2019-05-25T22:09:52.194Z,13.20
2019-05-25T22:12:20.852Z,13.10
2019-05-25T22:14:49.513Z,13.10
2019-05-25T22:17:18.180Z,13.20
2019-05-25T22:19:48.769Z,13.20
2019-05-25T22:22:17.191Z,13.20
2019-05-25T22:24:45.802Z,13.10
2019-05-25T22:27:14.443Z,13.10
2019-05-25T22:29:43.171Z,13.10
2019-05-25T22:32:11.832Z,13.00
2019-05-25T22:34:40.493Z,13.00
2019-05-25T22:37:09.107Z,13.10
2019-05-25T22:39:37.769Z,13.10
2019-05-25T22:42:06.377Z,13.10
2019-05-25T22:44:35.109Z,13.00
2019-05-25T22:47:03.962Z,13.00
2019-05-25T22:49:32.620Z,12.90
2019-05-25T22:52:01.300Z,13.00
2019-05-25T22:54:29.963Z,13.00
2019-05-25T22:56:58.573Z,12.90
2019-05-25T22:59:27.234Z,12.90
2019-05-25T23:01:55.852Z,12.90
2019-05-25T23:04:24.514Z,12.90
2019-05-25T23:06:57.824Z,12.90
2019-05-25T23:09:23.513Z,12.90
2019-05-25T23:11:52.126Z,12.90
2019-05-25T23:14:20.785Z,12.90
2019-05-25T23:16:49.491Z,12.90
2019-05-25T23:19:18.181Z,12.90
2019-05-25T23:21:46.799Z,12.90
2019-05-25T23:24:15.453Z,12.90
2019-05-25T23:26:44.137Z,12.90
2019-05-25T23:29:12.811Z,12.90
2019-05-25T23:31:41.494Z,12.90
2019-05-25T23:34:10.267Z,12.90
2019-05-25T23:36:38.883Z,12.90
2019-05-25T23:39:07.669Z,12.80
2019-05-25T23:41:36.320Z,12.80
2019-05-25T23:44:05.105Z,12.80
2019-05-25T23:46:33.771Z,12.70
2019-05-25T23:49:02.549Z,12.80
2019-05-25T23:51:31.221Z,12.70
2019-05-25T23:53:59.948Z,12.60
2019-05-25T23:56:28.563Z,12.60
2019-05-25T23:58:57.217Z,12.50
